sensor_id;sensor_type;location;lat;lon;timestamp;P1;durP1;ratioP1;P2;durP2;ratioP2
15412;SDS011;7805;49.554;7.632;2023-03-23T00:01:25;0.80;;;0.80;;
15412;SDS011;7805;49.554;7.632;2023-03-23T00:03:54;1.67;;;0.90;;
15412;SDS011;7805;49.554;7.632;2023-03-23T00:06:25;1.83;;;1.00;;
15412;SDS011;7805;49.554;7.632;2023-03-23T00:08:52;1.70;;;0.80;;
15412;SDS011;7805;49.554;7.632;2023-03-23T00:11:25;1.60;;;1.03;;
15412;SDS011;7805;49.554;7.632;2023-03-23T00:13:54;0.87;;;0.70;;
15412;SDS011;7805;49.554;7.632;2023-03-23T00:16:22;1.57;;;0.77;;
15412;SDS011;7805;49.554;7.632;2023-03-23T00:19:14;1.20;;;1.10;;
15412;SDS011;7805;49.554;7.632;2023-03-23T00:21:40;0.80;;;0.80;;
15412;SDS011;7805;49.554;7.632;2023-03-23T00:24:12;1.80;;;1.03;;
15412;SDS011;7805;49.554;7.632;2023-03-23T00:26:43;1.37;;;0.93;;
15412;SDS011;7805;49.554;7.632;2023-03-23T00:31:43;2.83;;;1.20;;
15412;SDS011;7805;49.554;7.632;2023-03-23T00:34:12;1.47;;;1.20;;
15412;SDS011;7805;49.554;7.632;2023-03-23T00:36:44;1.00;;;1.00;;
15412;SDS011;7805;49.554;7.632;2023-03-23T00:39:10;1.20;;;1.10;;
15412;SDS011;7805;49.554;7.632;2023-03-23T00:41:36;1.40;;;0.80;;
15412;SDS011;7805;49.554;7.632;2023-03-23T00:44:03;2.53;;;1.27;;
15412;SDS011;7805;49.554;7.632;2023-03-23T00:46:29;0.90;;;0.80;;
15412;SDS011;7805;49.554;7.632;2023-03-23T00:48:55;1.30;;;1.00;;
15412;SDS011;7805;49.554;7.632;2023-03-23T00:51:22;1.10;;;1.00;;
15412;SDS011;7805;49.554;7.632;2023-03-23T00:53:48;0.83;;;0.83;;
15412;SDS011;7805;49.554;7.632;2023-03-23T00:56:13;0.90;;;0.90;;
15412;SDS011;7805;49.554;7.632;2023-03-23T00:58:39;1.77;;;1.00;;
15412;SDS011;7805;49.554;7.632;2023-03-23T01:01:05;1.30;;;1.20;;
15412;SDS011;7805;49.554;7.632;2023-03-23T01:03:30;3.27;;;1.40;;
15412;SDS011;7805;49.554;7.632;2023-03-23T01:05:58;1.43;;;1.00;;
15412;SDS011;7805;49.554;7.632;2023-03-23T01:08:33;1.37;;;0.90;;
15412;SDS011;7805;49.554;7.632;2023-03-23T01:11:03;1.07;;;1.03;;
15412;SDS011;7805;49.554;7.632;2023-03-23T01:13:30;1.17;;;1.00;;
15412;SDS011;7805;49.554;7.632;2023-03-23T01:15:55;1.40;;;0.90;;
15412;SDS011;7805;49.554;7.632;2023-03-23T01:18:21;1.00;;;1.00;;
15412;SDS011;7805;49.554;7.632;2023-03-23T01:20:46;3.27;;;1.10;;
15412;SDS011;7805;49.554;7.632;2023-03-23T01:23:12;0.97;;;0.87;;
15412;SDS011;7805;49.554;7.632;2023-03-23T01:25:38;1.23;;;0.90;;
15412;SDS011;7805;49.554;7.632;2023-03-23T01:28:03;1.90;;;0.90;;
15412;SDS011;7805;49.554;7.632;2023-03-23T01:30:29;1.60;;;1.10;;
15412;SDS011;7805;49.554;7.632;2023-03-23T01:32:55;1.97;;;1.00;;
15412;SDS011;7805;49.554;7.632;2023-03-23T01:35:21;1.93;;;1.27;;
15412;SDS011;7805;49.554;7.632;2023-03-23T01:37:47;1.53;;;1.00;;
15412;SDS011;7805;49.554;7.632;2023-03-23T01:40:12;1.10;;;1.00;;
15412;SDS011;7805;49.554;7.632;2023-03-23T01:42:38;1.17;;;1.07;;
15412;SDS011;7805;49.554;7.632;2023-03-23T01:45:20;0.90;;;0.83;;
15412;SDS011;7805;49.554;7.632;2023-03-23T01:47:55;2.17;;;0.97;;
15412;SDS011;7805;49.554;7.632;2023-03-23T01:50:25;1.10;;;1.00;;
15412;SDS011;7805;49.554;7.632;2023-03-23T01:52:53;1.20;;;1.10;;
15412;SDS011;7805;49.554;7.632;2023-03-23T01:55:21;1.57;;;0.93;;
15412;SDS011;7805;49.554;7.632;2023-03-23T01:57:49;1.30;;;1.20;;
15412;SDS011;7805;49.554;7.632;2023-03-23T02:00:15;1.03;;;1.03;;
15412;SDS011;7805;49.554;7.632;2023-03-23T02:02:41;2.03;;;1.60;;
15412;SDS011;7805;49.554;7.632;2023-03-23T02:05:13;1.10;;;1.10;;
15412;SDS011;7805;49.554;7.632;2023-03-23T02:07:44;1.00;;;1.00;;
15412;SDS011;7805;49.554;7.632;2023-03-23T02:10:11;1.57;;;0.97;;
15412;SDS011;7805;49.554;7.632;2023-03-23T02:12:36;0.90;;;0.90;;
15412;SDS011;7805;49.554;7.632;2023-03-23T02:15:02;1.17;;;1.00;;
15412;SDS011;7805;49.554;7.632;2023-03-23T02:17:36;0.80;;;0.80;;
15412;SDS011;7805;49.554;7.632;2023-03-23T02:34:32;2.77;;;1.10;;
15412;SDS011;7805;49.554;7.632;2023-03-23T02:37:00;1.20;;;1.10;;
15412;SDS011;7805;49.554;7.632;2023-03-23T02:39:37;2.57;;;1.07;;
15412;SDS011;7805;49.554;7.632;2023-03-23T02:42:13;1.10;;;1.03;;
15412;SDS011;7805;49.554;7.632;2023-03-23T02:44:43;2.70;;;1.30;;
15412;SDS011;7805;49.554;7.632;2023-03-23T02:47:11;2.13;;;1.30;;
15412;SDS011;7805;49.554;7.632;2023-03-23T02:49:42;1.27;;;1.17;;
15412;SDS011;7805;49.554;7.632;2023-03-23T02:52:11;1.60;;;1.50;;
15412;SDS011;7805;49.554;7.632;2023-03-23T02:54:41;1.63;;;1.53;;
15412;SDS011;7805;49.554;7.632;2023-03-23T02:57:09;1.50;;;1.40;;
15412;SDS011;7805;49.554;7.632;2023-03-23T02:59:35;1.47;;;1.37;;
15412;SDS011;7805;49.554;7.632;2023-03-23T03:02:03;1.90;;;1.40;;
15412;SDS011;7805;49.554;7.632;2023-03-23T03:04:31;1.40;;;1.30;;
15412;SDS011;7805;49.554;7.632;2023-03-23T03:15:08;3.47;;;1.80;;
15412;SDS011;7805;49.554;7.632;2023-03-23T03:17:57;1.97;;;1.67;;
15412;SDS011;7805;49.554;7.632;2023-03-23T03:20:43;2.30;;;1.60;;
15412;SDS011;7805;49.554;7.632;2023-03-23T03:23:13;1.70;;;1.60;;
15412;SDS011;7805;49.554;7.632;2023-03-23T03:25:41;2.07;;;1.70;;
15412;SDS011;7805;49.554;7.632;2023-03-23T03:28:12;1.47;;;1.37;;
15412;SDS011;7805;49.554;7.632;2023-03-23T03:30:42;1.50;;;1.30;;
15412;SDS011;7805;49.554;7.632;2023-03-23T03:33:09;2.90;;;1.50;;
15412;SDS011;7805;49.554;7.632;2023-03-23T03:35:37;1.50;;;1.40;;
15412;SDS011;7805;49.554;7.632;2023-03-23T03:38:06;3.13;;;1.60;;
15412;SDS011;7805;49.554;7.632;2023-03-23T03:40:33;2.80;;;1.30;;
15412;SDS011;7805;49.554;7.632;2023-03-23T03:42:59;1.30;;;1.30;;
15412;SDS011;7805;49.554;7.632;2023-03-23T03:45:25;2.63;;;1.27;;
15412;SDS011;7805;49.554;7.632;2023-03-23T03:47:53;3.17;;;1.20;;
15412;SDS011;7805;49.554;7.632;2023-03-23T03:50:19;3.33;;;1.40;;
15412;SDS011;7805;49.554;7.632;2023-03-23T03:52:44;2.03;;;1.43;;
15412;SDS011;7805;49.554;7.632;2023-03-23T03:55:10;1.67;;;1.40;;
15412;SDS011;7805;49.554;7.632;2023-03-23T03:57:36;2.13;;;1.40;;
15412;SDS011;7805;49.554;7.632;2023-03-23T04:00:03;1.80;;;1.47;;
15412;SDS011;7805;49.554;7.632;2023-03-23T04:02:43;1.60;;;1.50;;
15412;SDS011;7805;49.554;7.632;2023-03-23T04:05:15;1.50;;;1.40;;
15412;SDS011;7805;49.554;7.632;2023-03-23T04:07:42;1.53;;;1.43;;
15412;SDS011;7805;49.554;7.632;2023-03-23T04:10:08;2.13;;;1.70;;
15412;SDS011;7805;49.554;7.632;2023-03-23T04:12:36;1.97;;;1.30;;
15412;SDS011;7805;49.554;7.632;2023-03-23T04:15:02;1.90;;;1.47;;
15412;SDS011;7805;49.554;7.632;2023-03-23T04:17:28;1.53;;;1.43;;
15412;SDS011;7805;49.554;7.632;2023-03-23T04:19:54;2.07;;;1.73;;
15412;SDS011;7805;49.554;7.632;2023-03-23T04:22:25;1.50;;;1.40;;
15412;SDS011;7805;49.554;7.632;2023-03-23T04:24:58;1.97;;;1.77;;
15412;SDS011;7805;49.554;7.632;2023-03-23T04:27:27;2.70;;;1.50;;
15412;SDS011;7805;49.554;7.632;2023-03-23T04:29:54;1.97;;;1.73;;
15412;SDS011;7805;49.554;7.632;2023-03-23T04:32:21;2.20;;;1.60;;
15412;SDS011;7805;49.554;7.632;2023-03-23T04:34:46;1.97;;;1.83;;
15412;SDS011;7805;49.554;7.632;2023-03-23T04:37:13;3.47;;;1.77;;
15412;SDS011;7805;49.554;7.632;2023-03-23T04:39:39;4.70;;;4.30;;
15412;SDS011;7805;49.554;7.632;2023-03-23T04:42:05;3.00;;;2.80;;
15412;SDS011;7805;49.554;7.632;2023-03-23T04:44:30;3.60;;;3.30;;
15412;SDS011;7805;49.554;7.632;2023-03-23T04:46:57;5.40;;;4.90;;
15412;SDS011;7805;49.554;7.632;2023-03-23T04:49:26;3.40;;;3.07;;
15412;SDS011;7805;49.554;7.632;2023-03-23T04:51:52;2.40;;;2.20;;
15412;SDS011;7805;49.554;7.632;2023-03-23T04:54:17;2.20;;;1.60;;
15412;SDS011;7805;49.554;7.632;2023-03-23T04:56:43;2.27;;;2.07;;
15412;SDS011;7805;49.554;7.632;2023-03-23T04:59:08;2.77;;;2.03;;
15412;SDS011;7805;49.554;7.632;2023-03-23T05:01:34;3.00;;;2.70;;
15412;SDS011;7805;49.554;7.632;2023-03-23T05:04:02;2.97;;;2.53;;
15412;SDS011;7805;49.554;7.632;2023-03-23T05:06:28;3.00;;;2.60;;
15412;SDS011;7805;49.554;7.632;2023-03-23T05:08:53;2.53;;;1.80;;
15412;SDS011;7805;49.554;7.632;2023-03-23T05:11:19;2.27;;;2.10;;
15412;SDS011;7805;49.554;7.632;2023-03-23T05:13:45;2.97;;;2.10;;
15412;SDS011;7805;49.554;7.632;2023-03-23T05:16:10;5.17;;;2.90;;
15412;SDS011;7805;49.554;7.632;2023-03-23T05:18:36;3.00;;;2.70;;
15412;SDS011;7805;49.554;7.632;2023-03-23T05:21:02;2.23;;;2.03;;
15412;SDS011;7805;49.554;7.632;2023-03-23T05:23:29;2.97;;;2.37;;
15412;SDS011;7805;49.554;7.632;2023-03-23T05:25:56;2.27;;;2.07;;
15412;SDS011;7805;49.554;7.632;2023-03-23T05:28:25;6.10;;;3.00;;
15412;SDS011;7805;49.554;7.632;2023-03-23T05:30:52;2.63;;;2.43;;
15412;SDS011;7805;49.554;7.632;2023-03-23T05:33:18;3.93;;;2.70;;
15412;SDS011;7805;49.554;7.632;2023-03-23T05:35:45;3.07;;;2.87;;
15412;SDS011;7805;49.554;7.632;2023-03-23T05:38:12;4.23;;;2.77;;
15412;SDS011;7805;49.554;7.632;2023-03-23T05:40:39;3.13;;;2.83;;
15412;SDS011;7805;49.554;7.632;2023-03-23T05:43:06;3.27;;;2.73;;
15412;SDS011;7805;49.554;7.632;2023-03-23T05:45:32;3.73;;;3.07;;
15412;SDS011;7805;49.554;7.632;2023-03-23T05:47:58;4.80;;;2.63;;
15412;SDS011;7805;49.554;7.632;2023-03-23T05:50:24;4.53;;;3.00;;
15412;SDS011;7805;49.554;7.632;2023-03-23T05:52:51;4.00;;;2.63;;
15412;SDS011;7805;49.554;7.632;2023-03-23T05:55:16;5.23;;;3.00;;
15412;SDS011;7805;49.554;7.632;2023-03-23T05:57:42;3.13;;;2.87;;
15412;SDS011;7805;49.554;7.632;2023-03-23T06:00:08;3.03;;;2.77;;
15412;SDS011;7805;49.554;7.632;2023-03-23T06:02:45;2.93;;;2.73;;
15412;SDS011;7805;49.554;7.632;2023-03-23T06:05:11;3.40;;;2.90;;
15412;SDS011;7805;49.554;7.632;2023-03-23T06:07:38;2.97;;;2.70;;
15412;SDS011;7805;49.554;7.632;2023-03-23T06:10:07;5.57;;;2.80;;
15412;SDS011;7805;49.554;7.632;2023-03-23T06:12:34;3.17;;;2.70;;
15412;SDS011;7805;49.554;7.632;2023-03-23T06:15:00;3.17;;;2.57;;
15412;SDS011;7805;49.554;7.632;2023-03-23T06:17:26;4.60;;;3.03;;
15412;SDS011;7805;49.554;7.632;2023-03-23T06:19:52;3.30;;;2.90;;
15412;SDS011;7805;49.554;7.632;2023-03-23T06:22:18;9.17;;;6.83;;
15412;SDS011;7805;49.554;7.632;2023-03-23T06:24:44;4.03;;;3.53;;
15412;SDS011;7805;49.554;7.632;2023-03-23T06:27:09;4.23;;;3.83;;
15412;SDS011;7805;49.554;7.632;2023-03-23T06:29:35;5.37;;;3.60;;
15412;SDS011;7805;49.554;7.632;2023-03-23T06:32:02;3.37;;;3.00;;
15412;SDS011;7805;49.554;7.632;2023-03-23T06:34:29;4.07;;;3.27;;
15412;SDS011;7805;49.554;7.632;2023-03-23T06:36:55;3.87;;;3.23;;
15412;SDS011;7805;49.554;7.632;2023-03-23T06:39:22;4.63;;;3.00;;
15412;SDS011;7805;49.554;7.632;2023-03-23T06:41:48;3.37;;;2.90;;
15412;SDS011;7805;49.554;7.632;2023-03-23T06:44:14;3.93;;;2.53;;
15412;SDS011;7805;49.554;7.632;2023-03-23T06:46:40;2.77;;;2.57;;
15412;SDS011;7805;49.554;7.632;2023-03-23T06:49:06;2.90;;;2.63;;
15412;SDS011;7805;49.554;7.632;2023-03-23T06:51:32;4.33;;;2.40;;
15412;SDS011;7805;49.554;7.632;2023-03-23T06:53:58;2.63;;;2.10;;
15412;SDS011;7805;49.554;7.632;2023-03-23T06:56:24;3.83;;;2.40;;
15412;SDS011;7805;49.554;7.632;2023-03-23T06:58:51;2.97;;;2.30;;
15412;SDS011;7805;49.554;7.632;2023-03-23T07:01:16;2.40;;;2.20;;
15412;SDS011;7805;49.554;7.632;2023-03-23T07:03:42;3.43;;;2.20;;
15412;SDS011;7805;49.554;7.632;2023-03-23T07:06:08;3.40;;;2.30;;
15412;SDS011;7805;49.554;7.632;2023-03-23T07:08:34;2.90;;;2.30;;
15412;SDS011;7805;49.554;7.632;2023-03-23T07:11:00;2.90;;;2.20;;
15412;SDS011;7805;49.554;7.632;2023-03-23T07:13:27;6.07;;;2.53;;
15412;SDS011;7805;49.554;7.632;2023-03-23T07:15:52;2.03;;;1.83;;
15412;SDS011;7805;49.554;7.632;2023-03-23T07:18:18;3.27;;;1.97;;
15412;SDS011;7805;49.554;7.632;2023-03-23T07:20:48;2.30;;;2.10;;
15412;SDS011;7805;49.554;7.632;2023-03-23T07:23:15;2.87;;;2.10;;
15412;SDS011;7805;49.554;7.632;2023-03-23T07:25:41;2.43;;;2.20;;
15412;SDS011;7805;49.554;7.632;2023-03-23T07:28:08;4.10;;;2.90;;
15412;SDS011;7805;49.554;7.632;2023-03-23T07:30:33;2.57;;;2.33;;
15412;SDS011;7805;49.554;7.632;2023-03-23T07:33:03;2.20;;;1.90;;
15412;SDS011;7805;49.554;7.632;2023-03-23T07:35:33;2.37;;;2.17;;
15412;SDS011;7805;49.554;7.632;2023-03-23T07:37:59;2.13;;;2.00;;
15412;SDS011;7805;49.554;7.632;2023-03-23T07:40:26;2.13;;;2.00;;
15412;SDS011;7805;49.554;7.632;2023-03-23T07:42:55;2.97;;;2.27;;
15412;SDS011;7805;49.554;7.632;2023-03-23T07:45:22;3.80;;;2.30;;
15412;SDS011;7805;49.554;7.632;2023-03-23T07:47:48;3.00;;;2.40;;
15412;SDS011;7805;49.554;7.632;2023-03-23T07:50:14;4.40;;;2.13;;
15412;SDS011;7805;49.554;7.632;2023-03-23T07:52:41;3.00;;;2.60;;
15412;SDS011;7805;49.554;7.632;2023-03-23T07:55:07;2.57;;;2.10;;
15412;SDS011;7805;49.554;7.632;2023-03-23T07:57:42;3.00;;;2.70;;
15412;SDS011;7805;49.554;7.632;2023-03-23T08:00:12;4.23;;;2.80;;
15412;SDS011;7805;49.554;7.632;2023-03-23T08:02:44;2.90;;;2.60;;
15412;SDS011;7805;49.554;7.632;2023-03-23T08:05:11;3.40;;;2.30;;
15412;SDS011;7805;49.554;7.632;2023-03-23T08:07:38;3.00;;;2.20;;
15412;SDS011;7805;49.554;7.632;2023-03-23T08:10:05;2.70;;;2.00;;
15412;SDS011;7805;49.554;7.632;2023-03-23T08:12:35;7.37;;;2.77;;
15412;SDS011;7805;49.554;7.632;2023-03-23T08:15:01;5.77;;;3.80;;
15412;SDS011;7805;49.554;7.632;2023-03-23T08:17:28;3.63;;;2.57;;
15412;SDS011;7805;49.554;7.632;2023-03-23T08:19:53;3.50;;;2.47;;
15412;SDS011;7805;49.554;7.632;2023-03-23T08:22:19;1.90;;;1.80;;
15412;SDS011;7805;49.554;7.632;2023-03-23T08:24:46;2.93;;;2.50;;
15412;SDS011;7805;49.554;7.632;2023-03-23T08:27:11;3.80;;;3.27;;
15412;SDS011;7805;49.554;7.632;2023-03-23T08:29:37;2.97;;;1.93;;
15412;SDS011;7805;49.554;7.632;2023-03-23T08:32:03;7.83;;;7.07;;
15412;SDS011;7805;49.554;7.632;2023-03-23T08:34:29;3.37;;;3.03;;
15412;SDS011;7805;49.554;7.632;2023-03-23T08:36:55;2.60;;;2.20;;
15412;SDS011;7805;49.554;7.632;2023-03-23T08:39:21;2.37;;;1.83;;
15412;SDS011;7805;49.554;7.632;2023-03-23T08:41:48;2.17;;;2.07;;
15412;SDS011;7805;49.554;7.632;2023-03-23T08:44:14;2.37;;;1.90;;
15412;SDS011;7805;49.554;7.632;2023-03-23T08:46:40;3.00;;;2.53;;
15412;SDS011;7805;49.554;7.632;2023-03-23T08:49:06;3.83;;;3.43;;
15412;SDS011;7805;49.554;7.632;2023-03-23T08:51:32;4.30;;;3.00;;
15412;SDS011;7805;49.554;7.632;2023-03-23T08:54:02;6.60;;;3.30;;
15412;SDS011;7805;49.554;7.632;2023-03-23T08:56:28;4.53;;;3.13;;
15412;SDS011;7805;49.554;7.632;2023-03-23T08:58:53;2.70;;;1.83;;
15412;SDS011;7805;49.554;7.632;2023-03-23T09:01:19;3.03;;;2.53;;
15412;SDS011;7805;49.554;7.632;2023-03-23T09:03:45;2.57;;;2.37;;
15412;SDS011;7805;49.554;7.632;2023-03-23T09:06:11;2.10;;;1.90;;
15412;SDS011;7805;49.554;7.632;2023-03-23T09:08:37;2.30;;;1.83;;
15412;SDS011;7805;49.554;7.632;2023-03-23T09:11:05;2.60;;;1.67;;
15412;SDS011;7805;49.554;7.632;2023-03-23T09:13:34;2.00;;;1.80;;
15412;SDS011;7805;49.554;7.632;2023-03-23T09:16:01;2.07;;;1.83;;
15412;SDS011;7805;49.554;7.632;2023-03-23T09:18:28;1.60;;;1.50;;
15412;SDS011;7805;49.554;7.632;2023-03-23T09:20:53;2.13;;;1.53;;
15412;SDS011;7805;49.554;7.632;2023-03-23T09:23:19;2.63;;;1.60;;
15412;SDS011;7805;49.554;7.632;2023-03-23T09:25:45;1.40;;;1.30;;
15412;SDS011;7805;49.554;7.632;2023-03-23T09:28:12;2.10;;;1.87;;
15412;SDS011;7805;49.554;7.632;2023-03-23T09:30:38;2.70;;;1.70;;
15412;SDS011;7805;49.554;7.632;2023-03-23T09:33:06;1.87;;;1.77;;
15412;SDS011;7805;49.554;7.632;2023-03-23T09:35:33;1.77;;;1.63;;
15412;SDS011;7805;49.554;7.632;2023-03-23T09:38:00;1.93;;;1.83;;
15412;SDS011;7805;49.554;7.632;2023-03-23T09:40:29;2.00;;;1.80;;
15412;SDS011;7805;49.554;7.632;2023-03-23T09:48:56;2.57;;;2.37;;
15412;SDS011;7805;49.554;7.632;2023-03-23T09:51:28;1.97;;;1.83;;
15412;SDS011;7805;49.554;7.632;2023-03-23T09:54:14;2.90;;;2.20;;
15412;SDS011;7805;49.554;7.632;2023-03-23T09:56:55;2.20;;;1.90;;
15412;SDS011;7805;49.554;7.632;2023-03-23T10:01:50;3.63;;;1.70;;
15412;SDS011;7805;49.554;7.632;2023-03-23T10:04:35;4.93;;;4.40;;
15412;SDS011;7805;49.554;7.632;2023-03-23T10:07:19;1.87;;;1.70;;
15412;SDS011;7805;49.554;7.632;2023-03-23T10:09:57;2.70;;;1.90;;
15412;SDS011;7805;49.554;7.632;2023-03-23T10:17:34;1.53;;;1.43;;
15412;SDS011;7805;49.554;7.632;2023-03-23T10:22:50;1.60;;;1.50;;
15412;SDS011;7805;49.554;7.632;2023-03-23T10:25:25;1.83;;;1.70;;
15412;SDS011;7805;49.554;7.632;2023-03-23T10:30:30;2.10;;;2.00;;
15412;SDS011;7805;49.554;7.632;2023-03-23T10:33:04;2.00;;;1.90;;
15412;SDS011;7805;49.554;7.632;2023-03-23T10:35:52;2.37;;;2.23;;
15412;SDS011;7805;49.554;7.632;2023-03-23T10:41:20;1.70;;;1.60;;
15412;SDS011;7805;49.554;7.632;2023-03-23T10:43:46;3.37;;;2.10;;
15412;SDS011;7805;49.554;7.632;2023-03-23T10:49:21;3.77;;;1.87;;
15412;SDS011;7805;49.554;7.632;2023-03-23T10:52:32;2.43;;;1.77;;
15412;SDS011;7805;49.554;7.632;2023-03-23T10:54:52;2.50;;;2.00;;
15412;SDS011;7805;49.554;7.632;2023-03-23T10:57:24;2.40;;;1.80;;
15412;SDS011;7805;49.554;7.632;2023-03-23T10:59:57;3.50;;;2.33;;
15412;SDS011;7805;49.554;7.632;2023-03-23T11:02:30;2.67;;;2.10;;
15412;SDS011;7805;49.554;7.632;2023-03-23T11:04:59;2.33;;;2.13;;
15412;SDS011;7805;49.554;7.632;2023-03-23T11:07:29;1.97;;;1.87;;
15412;SDS011;7805;49.554;7.632;2023-03-23T11:10:03;2.30;;;2.10;;
15412;SDS011;7805;49.554;7.632;2023-03-23T11:12:43;2.20;;;2.10;;
15412;SDS011;7805;49.554;7.632;2023-03-23T11:15:32;1.87;;;1.77;;
15412;SDS011;7805;49.554;7.632;2023-03-23T11:18:02;1.70;;;1.60;;
15412;SDS011;7805;49.554;7.632;2023-03-23T11:20:35;1.40;;;1.30;;
15412;SDS011;7805;49.554;7.632;2023-03-23T11:23:23;2.27;;;1.97;;
15412;SDS011;7805;49.554;7.632;2023-03-23T11:26:12;1.53;;;1.43;;
15412;SDS011;7805;49.554;7.632;2023-03-23T11:28:58;1.40;;;1.30;;
15412;SDS011;7805;49.554;7.632;2023-03-23T11:31:38;1.17;;;1.17;;
15412;SDS011;7805;49.554;7.632;2023-03-23T11:34:22;1.43;;;1.33;;
15412;SDS011;7805;49.554;7.632;2023-03-23T11:37:12;1.13;;;1.10;;
15412;SDS011;7805;49.554;7.632;2023-03-23T11:40:16;2.00;;;1.30;;
15412;SDS011;7805;49.554;7.632;2023-03-23T11:45:31;1.30;;;1.20;;
15412;SDS011;7805;49.554;7.632;2023-03-23T11:54:04;2.50;;;1.70;;
15412;SDS011;7805;49.554;7.632;2023-03-23T11:56:38;1.40;;;1.30;;
15412;SDS011;7805;49.554;7.632;2023-03-23T11:59:10;3.10;;;1.93;;
15412;SDS011;7805;49.554;7.632;2023-03-23T12:07:31;2.23;;;1.50;;
15412;SDS011;7805;49.554;7.632;2023-03-23T12:10:02;4.70;;;2.77;;
15412;SDS011;7805;49.554;7.632;2023-03-23T12:12:53;1.50;;;1.40;;
15412;SDS011;7805;49.554;7.632;2023-03-23T12:15:36;1.77;;;1.67;;
15412;SDS011;7805;49.554;7.632;2023-03-23T12:21:11;1.93;;;1.30;;
15412;SDS011;7805;49.554;7.632;2023-03-23T12:26:30;2.03;;;1.83;;
15412;SDS011;7805;49.554;7.632;2023-03-23T12:29:24;1.47;;;1.23;;
15412;SDS011;7805;49.554;7.632;2023-03-23T12:39:53;0.97;;;0.97;;
15412;SDS011;7805;49.554;7.632;2023-03-23T12:42:37;1.33;;;1.23;;
15412;SDS011;7805;49.554;7.632;2023-03-23T12:45:45;1.40;;;1.30;;
15412;SDS011;7805;49.554;7.632;2023-03-23T12:49:14;1.90;;;1.37;;
15412;SDS011;7805;49.554;7.632;2023-03-23T12:54:07;1.27;;;1.23;;
15412;SDS011;7805;49.554;7.632;2023-03-23T13:01:55;2.87;;;1.30;;
15412;SDS011;7805;49.554;7.632;2023-03-23T13:04:29;1.10;;;1.00;;
15412;SDS011;7805;49.554;7.632;2023-03-23T13:07:02;1.30;;;0.97;;
15412;SDS011;7805;49.554;7.632;2023-03-23T13:09:55;0.90;;;0.90;;
15412;SDS011;7805;49.554;7.632;2023-03-23T13:12:30;0.93;;;0.90;;
15412;SDS011;7805;49.554;7.632;2023-03-23T13:15:03;1.00;;;0.90;;
15412;SDS011;7805;49.554;7.632;2023-03-23T13:23:18;3.13;;;0.90;;
15412;SDS011;7805;49.554;7.632;2023-03-23T13:28:17;0.70;;;0.70;;
15412;SDS011;7805;49.554;7.632;2023-03-23T13:31:21;1.47;;;1.00;;
15412;SDS011;7805;49.554;7.632;2023-03-23T13:33:45;2.30;;;1.57;;
15412;SDS011;7805;49.554;7.632;2023-03-23T13:36:17;3.90;;;1.47;;
15412;SDS011;7805;49.554;7.632;2023-03-23T13:39:16;1.43;;;1.20;;
15412;SDS011;7805;49.554;7.632;2023-03-23T13:42:01;1.27;;;1.10;;
15412;SDS011;7805;49.554;7.632;2023-03-23T13:44:38;2.40;;;1.50;;
15412;SDS011;7805;49.554;7.632;2023-03-23T13:47:16;1.67;;;1.57;;
15412;SDS011;7805;49.554;7.632;2023-03-23T13:49:50;1.50;;;1.20;;
15412;SDS011;7805;49.554;7.632;2023-03-23T13:54:46;2.77;;;0.97;;
15412;SDS011;7805;49.554;7.632;2023-03-23T14:00:10;1.40;;;1.30;;
15412;SDS011;7805;49.554;7.632;2023-03-23T14:08:23;1.87;;;1.77;;
15412;SDS011;7805;49.554;7.632;2023-03-23T14:10:51;1.40;;;1.30;;
15412;SDS011;7805;49.554;7.632;2023-03-23T14:13:31;2.30;;;1.40;;
15412;SDS011;7805;49.554;7.632;2023-03-23T14:16:01;1.90;;;1.80;;
15412;SDS011;7805;49.554;7.632;2023-03-23T14:18:39;3.87;;;2.27;;
15412;SDS011;7805;49.554;7.632;2023-03-23T14:21:13;2.40;;;2.00;;
15412;SDS011;7805;49.554;7.632;2023-03-23T14:23:40;3.57;;;2.80;;
15412;SDS011;7805;49.554;7.632;2023-03-23T14:26:15;2.20;;;1.97;;
15412;SDS011;7805;49.554;7.632;2023-03-23T14:28:43;4.20;;;3.87;;
15412;SDS011;7805;49.554;7.632;2023-03-23T14:31:29;2.40;;;2.20;;
15412;SDS011;7805;49.554;7.632;2023-03-23T14:33:55;1.30;;;1.20;;
15412;SDS011;7805;49.554;7.632;2023-03-23T14:36:26;1.40;;;1.30;;
15412;SDS011;7805;49.554;7.632;2023-03-23T14:38:59;1.40;;;1.30;;
15412;SDS011;7805;49.554;7.632;2023-03-23T14:41:44;1.47;;;1.37;;
15412;SDS011;7805;49.554;7.632;2023-03-23T14:44:12;1.10;;;1.00;;
15412;SDS011;7805;49.554;7.632;2023-03-23T14:46:42;1.43;;;1.33;;
15412;SDS011;7805;49.554;7.632;2023-03-23T14:49:13;2.20;;;1.20;;
15412;SDS011;7805;49.554;7.632;2023-03-23T14:51:51;1.50;;;1.40;;
15412;SDS011;7805;49.554;7.632;2023-03-23T14:54:26;1.30;;;1.17;;
15412;SDS011;7805;49.554;7.632;2023-03-23T14:56:53;2.47;;;1.40;;
15412;SDS011;7805;49.554;7.632;2023-03-23T14:59:19;2.00;;;1.70;;
15412;SDS011;7805;49.554;7.632;2023-03-23T15:01:45;2.73;;;1.80;;
15412;SDS011;7805;49.554;7.632;2023-03-23T15:06:45;2.10;;;1.40;;
15412;SDS011;7805;49.554;7.632;2023-03-23T15:09:21;1.10;;;1.10;;
15412;SDS011;7805;49.554;7.632;2023-03-23T15:12:22;1.63;;;1.40;;
15412;SDS011;7805;49.554;7.632;2023-03-23T15:14:48;2.37;;;1.20;;
15412;SDS011;7805;49.554;7.632;2023-03-23T15:17:20;2.37;;;1.30;;
15412;SDS011;7805;49.554;7.632;2023-03-23T15:19:57;1.93;;;1.37;;
15412;SDS011;7805;49.554;7.632;2023-03-23T15:22:36;1.20;;;1.10;;
15412;SDS011;7805;49.554;7.632;2023-03-23T15:25:16;2.80;;;1.33;;
15412;SDS011;7805;49.554;7.632;2023-03-23T15:27:44;2.90;;;1.33;;
15412;SDS011;7805;49.554;7.632;2023-03-23T15:32:53;1.70;;;1.60;;
15412;SDS011;7805;49.554;7.632;2023-03-23T15:35:24;1.93;;;1.73;;
15412;SDS011;7805;49.554;7.632;2023-03-23T15:38:03;1.63;;;1.53;;
15412;SDS011;7805;49.554;7.632;2023-03-23T15:40:35;2.30;;;2.10;;
15412;SDS011;7805;49.554;7.632;2023-03-23T15:43:19;1.90;;;1.77;;
15412;SDS011;7805;49.554;7.632;2023-03-23T15:45:54;3.70;;;2.07;;
15412;SDS011;7805;49.554;7.632;2023-03-23T15:48:29;2.87;;;1.70;;
15412;SDS011;7805;49.554;7.632;2023-03-23T15:50:56;3.43;;;1.50;;
15412;SDS011;7805;49.554;7.632;2023-03-23T15:55:59;1.93;;;1.73;;
15412;SDS011;7805;49.554;7.632;2023-03-23T15:58:26;1.77;;;1.67;;
15412;SDS011;7805;49.554;7.632;2023-03-23T16:00:53;3.23;;;2.60;;
15412;SDS011;7805;49.554;7.632;2023-03-23T16:03:23;2.13;;;1.93;;
15412;SDS011;7805;49.554;7.632;2023-03-23T16:05:55;1.67;;;1.20;;
15412;SDS011;7805;49.554;7.632;2023-03-23T16:08:23;2.57;;;2.37;;
15412;SDS011;7805;49.554;7.632;2023-03-23T16:10:49;5.60;;;4.27;;
15412;SDS011;7805;49.554;7.632;2023-03-23T16:13:15;3.23;;;2.93;;
15412;SDS011;7805;49.554;7.632;2023-03-23T16:15:42;1.93;;;1.80;;
15412;SDS011;7805;49.554;7.632;2023-03-23T16:18:10;1.60;;;1.50;;
15412;SDS011;7805;49.554;7.632;2023-03-23T16:20:43;3.40;;;1.90;;
15412;SDS011;7805;49.554;7.632;2023-03-23T16:23:09;1.47;;;1.40;;
15412;SDS011;7805;49.554;7.632;2023-03-23T16:25:35;1.87;;;1.77;;
15412;SDS011;7805;49.554;7.632;2023-03-23T16:28:00;2.73;;;1.70;;
15412;SDS011;7805;49.554;7.632;2023-03-23T16:30:27;1.73;;;1.30;;
15412;SDS011;7805;49.554;7.632;2023-03-23T16:32:54;1.90;;;1.70;;
15412;SDS011;7805;49.554;7.632;2023-03-23T16:35:19;1.60;;;1.10;;
15412;SDS011;7805;49.554;7.632;2023-03-23T16:37:46;2.27;;;1.93;;
15412;SDS011;7805;49.554;7.632;2023-03-23T16:40:14;2.60;;;1.80;;
15412;SDS011;7805;49.554;7.632;2023-03-23T16:42:41;1.93;;;1.33;;
15412;SDS011;7805;49.554;7.632;2023-03-23T16:45:07;1.83;;;1.73;;
15412;SDS011;7805;49.554;7.632;2023-03-23T16:47:34;1.83;;;1.73;;
15412;SDS011;7805;49.554;7.632;2023-03-23T16:49:59;2.53;;;1.60;;
15412;SDS011;7805;49.554;7.632;2023-03-23T16:52:25;3.90;;;3.27;;
15412;SDS011;7805;49.554;7.632;2023-03-23T16:54:51;2.20;;;2.00;;
15412;SDS011;7805;49.554;7.632;2023-03-23T16:57:16;1.90;;;1.80;;
15412;SDS011;7805;49.554;7.632;2023-03-23T16:59:42;4.50;;;4.07;;
15412;SDS011;7805;49.554;7.632;2023-03-23T17:02:09;2.93;;;2.70;;
15412;SDS011;7805;49.554;7.632;2023-03-23T17:04:36;2.03;;;1.83;;
15412;SDS011;7805;49.554;7.632;2023-03-23T17:07:06;1.50;;;1.40;;
15412;SDS011;7805;49.554;7.632;2023-03-23T17:09:32;1.60;;;1.47;;
15412;SDS011;7805;49.554;7.632;2023-03-23T17:11:58;2.30;;;1.70;;